createdAt,value
2023-05-14T00:00:23.374Z,0.00
2023-05-14T00:01:23.199Z,0.00
2023-05-14T00:02:23.259Z,0.00
2023-05-14T00:03:23.212Z,0.00
2023-05-14T00:04:23.179Z,0.00
2023-05-14T00:05:23.151Z,0.00
2023-05-14T00:06:23.817Z,0.00
2023-05-14T00:07:23.128Z,0.00
2023-05-14T00:08:23.121Z,0.00
2023-05-14T00:09:23.121Z,0.00
2023-05-14T00:10:23.272Z,0.00
2023-05-14T00:11:23.417Z,0.00
2023-05-14T00:12:23.080Z,0.00
2023-05-14T00:13:23.081Z,0.00
2023-05-14T00:14:23.059Z,0.00
2023-05-14T00:15:23.083Z,0.00
2023-05-14T00:16:23.357Z,0.00
2023-05-14T00:17:23.109Z,0.00
2023-05-14T00:18:23.020Z,0.00
2023-05-14T00:19:23.016Z,0.00
2023-05-14T00:20:23.529Z,0.00
2023-05-14T00:21:23.003Z,0.00
2023-05-14T00:22:22.984Z,0.00
2023-05-14T00:23:23.026Z,0.00
2023-05-14T00:24:22.964Z,0.00
2023-05-14T00:25:22.975Z,0.00
2023-05-14T00:26:22.949Z,0.00
2023-05-14T00:27:22.933Z,0.00
2023-05-14T00:28:22.911Z,0.00
2023-05-14T00:29:23.270Z,0.00
2023-05-14T00:30:23.438Z,0.00
2023-05-14T00:31:22.917Z,0.00
2023-05-14T00:32:22.911Z,0.00
2023-05-14T00:33:22.877Z,0.00
2023-05-14T00:34:23.346Z,0.00
2023-05-14T00:35:22.856Z,0.00
2023-05-14T00:36:22.851Z,0.00
2023-05-14T00:37:22.836Z,0.00
2023-05-14T00:38:22.814Z,0.00
2023-05-14T00:39:23.661Z,0.00
2023-05-14T00:40:23.138Z,0.00
2023-05-14T00:41:22.784Z,0.00
2023-05-14T00:42:22.792Z,0.00
2023-05-14T00:43:23.113Z,0.00
2023-05-14T00:44:23.185Z,0.00
2023-05-14T00:45:22.771Z,0.00
2023-05-14T00:46:22.793Z,0.00
2023-05-14T00:47:22.745Z,0.00
2023-05-14T00:48:23.424Z,0.00
2023-05-14T00:49:22.742Z,0.00
2023-05-14T00:50:22.934Z,0.00
2023-05-14T00:51:22.712Z,0.00
2023-05-14T00:52:22.680Z,0.00
2023-05-14T00:53:23.496Z,0.00
2023-05-14T00:54:22.649Z,0.00
2023-05-14T00:55:22.659Z,0.00
2023-05-14T00:56:22.670Z,0.00
2023-05-14T00:57:22.658Z,0.00
2023-05-14T00:58:23.215Z,0.00
2023-05-14T00:59:22.618Z,0.00
2023-05-14T01:00:22.785Z,0.00
2023-05-14T01:01:22.661Z,0.00
2023-05-14T01:02:22.722Z,0.00
2023-05-14T01:03:22.649Z,0.00
2023-05-14T01:04:22.789Z,0.00
2023-05-14T01:05:22.568Z,0.00
2023-05-14T01:06:22.537Z,0.00
2023-05-14T01:07:22.547Z,0.00
2023-05-14T01:08:22.507Z,0.00
2023-05-14T01:09:22.507Z,0.00
2023-05-14T01:10:22.683Z,0.00
2023-05-14T01:11:23.261Z,0.00
2023-05-14T01:12:22.481Z,0.00
2023-05-14T01:13:22.460Z,0.00
2023-05-14T01:14:22.449Z,0.00
2023-05-14T01:15:22.441Z,0.00
2023-05-14T01:16:22.790Z,0.00
2023-05-14T01:17:22.421Z,0.00
2023-05-14T01:18:22.401Z,0.00
2023-05-14T01:19:22.400Z,0.00
2023-05-14T01:20:22.596Z,0.00
2023-05-14T01:21:22.749Z,0.00
2023-05-14T01:22:22.372Z,0.00
2023-05-14T01:23:22.355Z,0.00
2023-05-14T01:24:22.341Z,0.00
2023-05-14T01:25:22.382Z,0.00
2023-05-14T01:26:22.667Z,0.00
2023-05-14T01:27:22.313Z,0.00
2023-05-14T01:28:22.309Z,0.00
2023-05-14T01:29:22.294Z,0.00
2023-05-14T01:30:22.648Z,0.00
2023-05-14T01:31:22.281Z,0.00
2023-05-14T01:32:22.281Z,0.00
2023-05-14T01:33:22.263Z,0.00
2023-05-14T01:34:22.235Z,0.00
2023-05-14T01:35:22.278Z,0.00
2023-05-14T01:36:22.221Z,0.00
2023-05-14T01:37:22.219Z,0.00
2023-05-14T01:38:22.199Z,0.00
2023-05-14T01:39:22.493Z,0.00
2023-05-14T01:40:22.800Z,0.00
2023-05-14T01:41:22.174Z,0.00
2023-05-14T01:42:22.153Z,0.00
2023-05-14T01:43:22.167Z,0.00
2023-05-14T01:44:22.456Z,0.00
2023-05-14T01:45:22.130Z,0.00
2023-05-14T01:46:22.150Z,0.00
2023-05-14T01:47:22.248Z,0.00
2023-05-14T01:48:22.095Z,0.00
2023-05-14T01:49:22.129Z,0.00
2023-05-14T01:50:22.234Z,0.00
2023-05-14T01:51:22.057Z,0.00
2023-05-14T01:52:22.044Z,0.00
2023-05-14T01:53:22.067Z,0.00
2023-05-14T01:54:22.360Z,0.00
2023-05-14T01:55:22.034Z,0.00
2023-05-14T01:56:22.001Z,0.00
2023-05-14T01:57:22.007Z,0.00
2023-05-14T01:58:22.392Z,0.00
2023-05-14T01:59:21.980Z,0.00
2023-05-14T02:00:22.169Z,0.00
2023-05-14T02:01:21.970Z,0.00
2023-05-14T02:02:21.942Z,0.00
2023-05-14T02:03:22.455Z,0.00
2023-05-14T02:04:21.982Z,0.00
2023-05-14T02:05:21.915Z,0.00
2023-05-14T02:06:21.890Z,0.00
2023-05-14T02:07:22.262Z,0.00
2023-05-14T02:08:22.641Z,0.00
2023-05-14T02:09:21.882Z,0.00
2023-05-14T02:10:22.041Z,0.00
2023-05-14T02:11:21.857Z,0.00
2023-05-14T02:12:22.174Z,0.00
2023-05-14T02:13:21.836Z,0.00
2023-05-14T02:14:21.816Z,0.00
2023-05-14T02:15:21.818Z,0.00
2023-05-14T02:16:21.843Z,0.00
2023-05-14T02:17:22.034Z,0.00
2023-05-14T02:18:21.795Z,0.00
2023-05-14T02:19:22.530Z,0.00
2023-05-14T02:20:21.900Z,0.00
2023-05-14T02:21:21.769Z,0.00
2023-05-14T02:22:22.233Z,0.00
2023-05-14T02:23:28.262Z,0.00
2023-05-14T02:24:21.727Z,0.00
2023-05-14T02:25:21.726Z,0.00
2023-05-14T02:26:22.042Z,0.00
2023-05-14T02:27:21.684Z,0.00
2023-05-14T02:28:21.673Z,0.00
2023-05-14T02:29:21.667Z,0.00
2023-05-14T02:30:21.828Z,0.00
2023-05-14T02:31:22.122Z,0.00
2023-05-14T02:32:21.687Z,0.00
2023-05-14T02:33:21.690Z,0.00
2023-05-14T02:34:21.623Z,0.00
2023-05-14T02:35:21.922Z,0.00
2023-05-14T02:36:21.901Z,0.00
2023-05-14T02:37:21.600Z,0.00
2023-05-14T02:38:21.574Z,0.00
2023-05-14T02:39:21.577Z,0.00
2023-05-14T02:40:22.488Z,0.00
2023-05-14T02:41:21.559Z,0.00
2023-05-14T02:42:21.520Z,0.00
2023-05-14T02:43:21.527Z,0.00
2023-05-14T02:44:21.510Z,0.00
2023-05-14T02:45:21.858Z,0.00
2023-05-14T02:46:21.532Z,0.00
2023-05-14T02:47:21.510Z,0.00
2023-05-14T02:48:21.463Z,0.00
2023-05-14T02:49:22.337Z,0.00
2023-05-14T02:50:21.887Z,0.00
2023-05-14T02:51:21.384Z,1.00
2023-05-14T02:52:21.440Z,0.00
2023-05-14T02:53:21.418Z,0.00
2023-05-14T02:54:21.705Z,1.00
2023-05-14T02:55:21.345Z,1.00
2023-05-14T02:56:21.352Z,1.00
2023-05-14T02:57:21.333Z,1.00
2023-05-14T02:58:27.291Z,0.00
2023-05-14T02:59:21.819Z,0.00
2023-05-14T03:00:21.641Z,2.00
2023-05-14T03:01:21.373Z,1.00
2023-05-14T03:02:21.339Z,1.00
2023-05-14T03:03:21.671Z,1.00
2023-05-14T03:04:21.329Z,0.00
2023-05-14T03:05:21.286Z,0.00
2023-05-14T03:06:21.299Z,4.00
2023-05-14T03:07:21.263Z,3.00
2023-05-14T03:08:21.973Z,6.00
2023-05-14T03:09:21.260Z,3.00
2023-05-14T03:10:21.390Z,2.00
2023-05-14T03:11:21.172Z,2.00
2023-05-14T03:12:21.159Z,2.00
2023-05-14T03:13:21.482Z,5.00
2023-05-14T03:14:21.134Z,5.00
2023-05-14T03:15:21.139Z,6.00
2023-05-14T03:16:21.202Z,4.00
2023-05-14T03:17:21.633Z,10.00
2023-05-14T03:18:21.417Z,6.00
2023-05-14T03:19:21.092Z,6.00
2023-05-14T03:20:21.276Z,12.00
2023-05-14T03:21:21.073Z,10.00
2023-05-14T03:22:21.382Z,9.00
2023-05-14T03:23:21.049Z,9.00
2023-05-14T03:24:21.030Z,15.00
2023-05-14T03:25:21.027Z,16.00
2023-05-14T03:26:21.012Z,16.00
2023-05-14T03:27:21.356Z,21.00
2023-05-14T03:28:20.989Z,23.00
2023-05-14T03:29:20.991Z,29.00
2023-05-14T03:30:21.098Z,28.00
2023-05-14T03:31:21.338Z,30.00
2023-05-14T03:32:21.346Z,36.00
2023-05-14T03:33:20.944Z,37.00
2023-05-14T03:34:20.923Z,37.00
2023-05-14T03:35:20.923Z,38.00
2023-05-14T03:36:20.930Z,43.00
2023-05-14T03:37:20.904Z,47.00
2023-05-14T03:38:20.884Z,50.00
2023-05-14T03:39:20.878Z,57.00
2023-05-14T03:40:20.860Z,60.00
2023-05-14T03:41:21.230Z,65.00
2023-05-14T03:42:20.839Z,70.00
2023-05-14T03:43:20.841Z,75.00
2023-05-14T03:44:20.817Z,83.00
2023-05-14T03:45:21.145Z,90.00
2023-05-14T03:46:21.348Z,99.00
2023-05-14T03:47:20.798Z,104.00
2023-05-14T03:48:20.929Z,107.00
2023-05-14T03:49:20.769Z,112.00
2023-05-14T03:50:21.177Z,115.00
2023-05-14T03:51:20.752Z,119.00
2023-05-14T03:52:20.765Z,117.00
2023-05-14T03:53:20.733Z,125.00
2023-05-14T03:54:20.724Z,142.00
2023-05-14T03:55:21.049Z,146.00
2023-05-14T03:56:20.704Z,160.00
2023-05-14T03:57:20.680Z,169.00
2023-05-14T03:58:20.695Z,173.00
2023-05-14T03:59:21.391Z,175.00
2023-05-14T04:00:20.764Z,179.00
2023-05-14T04:01:20.644Z,184.00
2023-05-14T04:02:20.651Z,191.00
2023-05-14T04:03:21.070Z,192.00
2023-05-14T04:04:20.685Z,198.00
2023-05-14T04:05:20.614Z,203.00
2023-05-14T04:06:20.602Z,216.00
2023-05-14T04:07:20.585Z,222.00
2023-05-14T04:08:20.595Z,219.00
2023-05-14T04:09:21.433Z,222.00
2023-05-14T04:10:20.579Z,227.00
2023-05-14T04:11:20.559Z,237.00
2023-05-14T04:12:20.533Z,235.00
2023-05-14T04:13:20.883Z,230.00
2023-05-14T04:14:20.878Z,240.00
2023-05-14T04:15:20.511Z,247.00
2023-05-14T04:16:20.562Z,249.00
2023-05-14T04:17:20.479Z,259.00
2023-05-14T04:18:20.785Z,270.00
2023-05-14T04:19:20.569Z,279.00
2023-05-14T04:20:20.450Z,289.00
2023-05-14T04:21:20.461Z,297.00
2023-05-14T04:22:20.457Z,338.00
2023-05-14T04:23:21.262Z,383.00
2023-05-14T04:24:20.417Z,423.00
2023-05-14T04:25:20.402Z,460.00
2023-05-14T04:26:20.405Z,489.00
2023-05-14T04:27:20.685Z,491.00
2023-05-14T04:28:20.708Z,491.00
2023-05-14T04:29:20.362Z,497.00
2023-05-14T04:30:20.360Z,492.00
2023-05-14T04:31:20.363Z,497.00
2023-05-14T04:32:21.143Z,499.00
2023-05-14T04:33:20.314Z,516.00
2023-05-14T04:34:20.331Z,520.00
2023-05-14T04:35:22.091Z,543.00
2023-05-14T04:36:20.484Z,557.00
2023-05-14T04:37:20.637Z,556.00
2023-05-14T04:38:20.271Z,549.00
2023-05-14T04:39:20.250Z,559.00
2023-05-14T04:40:20.250Z,562.00
2023-05-14T04:41:20.586Z,579.00
2023-05-14T04:42:20.234Z,602.00
2023-05-14T04:43:20.213Z,630.00
2023-05-14T04:44:20.206Z,675.00
2023-05-14T04:45:20.193Z,716.00
2023-05-14T04:46:20.616Z,737.00
2023-05-14T04:47:20.271Z,758.00
2023-05-14T04:48:20.169Z,759.00
2023-05-14T04:49:20.162Z,761.00
2023-05-14T04:50:20.146Z,786.00
2023-05-14T04:51:20.883Z,815.00
2023-05-14T04:52:20.123Z,875.00
2023-05-14T04:53:20.114Z,916.00
2023-05-14T04:54:20.139Z,971.00
2023-05-14T04:55:20.464Z,1001.00
2023-05-14T04:56:20.098Z,1036.00
2023-05-14T04:57:20.100Z,1049.00
2023-05-14T04:58:20.069Z,1069.00
2023-05-14T04:59:20.050Z,1098.00
2023-05-14T05:00:20.370Z,1094.00
2023-05-14T05:01:20.063Z,1088.00
2023-05-14T05:02:20.028Z,1079.00
2023-05-14T05:03:20.171Z,1036.00
2023-05-14T05:04:20.125Z,1004.00
2023-05-14T05:05:20.313Z,966.00
2023-05-14T05:06:19.987Z,941.00
2023-05-14T05:07:19.978Z,946.00
2023-05-14T05:08:19.970Z,932.00
2023-05-14T05:09:20.308Z,935.00
2023-05-14T05:10:20.250Z,930.00
2023-05-14T05:11:19.946Z,929.00
2023-05-14T05:12:19.937Z,936.00
2023-05-14T05:13:19.922Z,951.00
2023-05-14T05:14:19.962Z,978.00
2023-05-14T05:15:19.894Z,1004.00
2023-05-14T05:16:19.946Z,1023.00
2023-05-14T05:17:19.904Z,1042.00
2023-05-14T05:18:19.884Z,1043.00
2023-05-14T05:19:26.550Z,1022.00
2023-05-14T05:20:19.856Z,992.00
2023-05-14T05:21:19.845Z,968.00
2023-05-14T05:22:19.841Z,960.00
2023-05-14T05:23:20.175Z,941.00
2023-05-14T05:24:20.247Z,933.00
2023-05-14T05:25:19.803Z,910.00
2023-05-14T05:26:19.804Z,909.00
2023-05-14T05:27:19.780Z,898.00
2023-05-14T05:28:20.104Z,905.00
2023-05-14T05:29:19.761Z,916.00
2023-05-14T05:30:19.757Z,928.00
2023-05-14T05:31:20.047Z,952.00
2023-05-14T05:32:19.742Z,949.00
2023-05-14T05:33:20.043Z,962.00
2023-05-14T05:34:19.719Z,973.00
2023-05-14T05:35:19.712Z,966.00
2023-05-14T05:36:19.703Z,955.00
2023-05-14T05:37:20.079Z,950.00
2023-05-14T05:38:19.703Z,938.00
2023-05-14T05:39:19.666Z,927.00
2023-05-14T05:40:19.670Z,943.00
2023-05-14T05:41:19.648Z,962.00
2023-05-14T05:42:19.968Z,980.00
2023-05-14T05:43:19.630Z,987.00
2023-05-14T05:44:19.628Z,990.00
2023-05-14T05:45:19.611Z,984.00
2023-05-14T05:46:19.654Z,967.00
2023-05-14T05:47:19.992Z,961.00
2023-05-14T05:48:19.589Z,970.00
2023-05-14T05:49:19.569Z,998.00
2023-05-14T05:50:20.078Z,1041.00
2023-05-14T05:51:19.857Z,1093.00
2023-05-14T05:52:19.911Z,1136.00
2023-05-14T05:53:19.531Z,1176.00
2023-05-14T05:54:19.525Z,1196.00
2023-05-14T05:55:19.519Z,1224.00
2023-05-14T05:56:19.866Z,1251.00
2023-05-14T05:57:19.492Z,1286.00
2023-05-14T05:58:19.486Z,1324.00
2023-05-14T05:59:19.472Z,1333.00
2023-05-14T06:00:19.505Z,1338.00
2023-05-14T06:01:19.490Z,1355.00
2023-05-14T06:02:19.482Z,1404.00
2023-05-14T06:03:19.471Z,1460.00
2023-05-14T06:04:19.435Z,1498.00
2023-05-14T06:05:19.523Z,1521.00
2023-05-14T06:06:19.447Z,1550.00
2023-05-14T06:07:19.400Z,1584.00
2023-05-14T06:08:19.404Z,1600.00
2023-05-14T06:09:19.380Z,1625.00
2023-05-14T06:10:19.765Z,1659.00
2023-05-14T06:11:19.362Z,1669.00
2023-05-14T06:12:19.382Z,1692.00
2023-05-14T06:13:19.348Z,1739.00
2023-05-14T06:14:19.349Z,1786.00
2023-05-14T06:15:19.391Z,1822.00
2023-05-14T06:16:19.340Z,1857.00
2023-05-14T06:17:19.369Z,1916.00
2023-05-14T06:18:19.310Z,1980.00
2023-05-14T06:19:19.781Z,2063.00
2023-05-14T06:20:19.820Z,2242.00
2023-05-14T06:21:19.274Z,2419.00
2023-05-14T06:22:19.269Z,2619.00
2023-05-14T06:23:19.256Z,2760.00
2023-05-14T06:24:19.590Z,2819.00
2023-05-14T06:25:19.239Z,2846.00
2023-05-14T06:26:19.246Z,2771.00
2023-05-14T06:27:19.226Z,2743.00
2023-05-14T06:28:19.233Z,2680.00
2023-05-14T06:29:19.218Z,2586.00
2023-05-14T06:30:19.199Z,2530.00
2023-05-14T06:31:19.239Z,2517.00
2023-05-14T06:32:19.284Z,2526.00
2023-05-14T06:33:20.625Z,2533.00
2023-05-14T06:34:19.470Z,2606.00
2023-05-14T06:35:19.154Z,2623.00
2023-05-14T06:36:19.158Z,2655.00
2023-05-14T06:37:19.127Z,2714.00
2023-05-14T06:38:19.845Z,2743.00
2023-05-14T06:39:19.117Z,2789.00
2023-05-14T06:40:19.106Z,2791.00
2023-05-14T06:41:19.096Z,2816.00
2023-05-14T06:42:19.098Z,2819.00
2023-05-14T06:43:19.090Z,2786.00
2023-05-14T06:44:19.073Z,2748.00
2023-05-14T06:45:19.058Z,2723.00
2023-05-14T06:46:19.059Z,2721.00
2023-05-14T06:47:19.363Z,2708.00
2023-05-14T06:48:19.400Z,2499.00
2023-05-14T06:49:19.016Z,3498.00
2023-05-14T06:50:19.021Z,3303.00
2023-05-14T06:51:19.007Z,3293.00
2023-05-14T06:52:19.022Z,3065.00
2023-05-14T06:53:18.989Z,4011.00
2023-05-14T06:54:18.976Z,6258.00
2023-05-14T06:55:18.973Z,4743.00
2023-05-14T06:56:18.965Z,4905.00
2023-05-14T06:57:19.142Z,5770.00
2023-05-14T06:58:18.942Z,5593.00
2023-05-14T06:59:18.918Z,5495.00
2023-05-14T07:00:18.921Z,5764.00
2023-05-14T07:01:18.936Z,5970.00
2023-05-14T07:02:18.910Z,5209.00
2023-05-14T07:03:18.875Z,5318.00
2023-05-14T07:04:18.949Z,5267.00
2023-05-14T07:05:18.858Z,4905.00
2023-05-14T07:06:18.860Z,4966.00
2023-05-14T07:07:18.837Z,5080.00
2023-05-14T07:08:18.838Z,5040.00
2023-05-14T07:09:18.813Z,5063.00
2023-05-14T07:10:18.809Z,5103.00
2023-05-14T07:11:18.837Z,5154.00
2023-05-14T07:12:18.791Z,5169.00
2023-05-14T07:13:18.768Z,5172.00
2023-05-14T07:14:18.777Z,5141.00
2023-05-14T07:15:19.005Z,5138.00
2023-05-14T07:16:19.092Z,5265.00
2023-05-14T07:17:18.786Z,5458.00
2023-05-14T07:18:18.728Z,5541.00
2023-05-14T07:19:18.725Z,5927.00
2023-05-14T07:20:19.419Z,5884.00
2023-05-14T07:21:18.682Z,5258.00
2023-05-14T07:22:18.689Z,7388.00
2023-05-14T07:23:19.986Z,7166.00
2023-05-14T07:24:18.655Z,6549.00
2023-05-14T07:25:18.995Z,3727.00
2023-05-14T07:26:18.635Z,23446.00
2023-05-14T07:27:18.621Z,9111.00
2023-05-14T07:28:18.615Z,7286.00
2023-05-14T07:29:18.921Z,6742.00
2023-05-14T07:30:19.012Z,6482.00
2023-05-14T07:31:18.596Z,6036.00
2023-05-14T07:32:18.570Z,5896.00
2023-05-14T07:33:18.566Z,7680.00
2023-05-14T07:34:18.852Z,7565.00
2023-05-14T07:35:18.534Z,7704.00
2023-05-14T07:36:18.531Z,7645.00
2023-05-14T07:37:18.522Z,9454.00
2023-05-14T07:38:18.509Z,7914.00
2023-05-14T07:39:18.770Z,8080.00
2023-05-14T07:40:18.490Z,9302.00
2023-05-14T07:41:18.472Z,8410.00
2023-05-14T07:42:31.789Z,7860.00
2023-05-14T07:43:18.487Z,9520.00
2023-05-14T07:44:18.755Z,8229.00
2023-05-14T07:45:18.416Z,8094.00
2023-05-14T07:46:18.424Z,10125.00
2023-05-14T07:47:18.447Z,10182.00
2023-05-14T07:48:18.444Z,8702.00
2023-05-14T07:49:18.378Z,13693.00
2023-05-14T07:50:18.369Z,9461.00
2023-05-14T07:51:18.352Z,7780.00
2023-05-14T07:52:18.352Z,6584.00
2023-05-14T07:53:18.349Z,5933.00
2023-05-14T07:54:18.325Z,5558.00
2023-05-14T07:55:18.310Z,5926.00
2023-05-14T07:56:18.295Z,6035.00
2023-05-14T07:57:18.676Z,6525.00
2023-05-14T07:58:18.284Z,7706.00
2023-05-14T07:59:18.254Z,6502.00
2023-05-14T08:00:18.252Z,6421.00
2023-05-14T08:01:18.229Z,6524.00
2023-05-14T08:02:18.628Z,6448.00
2023-05-14T08:03:18.308Z,6321.00
2023-05-14T08:04:18.324Z,6127.00
2023-05-14T08:05:18.183Z,6096.00
2023-05-14T08:06:18.165Z,5901.00
2023-05-14T08:07:18.184Z,5819.00
2023-05-14T08:08:18.143Z,5818.00
2023-05-14T08:09:18.148Z,5824.00
2023-05-14T08:10:18.122Z,5863.00
2023-05-14T08:11:18.714Z,5896.00
2023-05-14T08:12:18.475Z,6038.00
2023-05-14T08:13:18.096Z,6046.00
2023-05-14T08:14:18.069Z,5883.00
2023-05-14T08:15:18.067Z,6718.00
2023-05-14T08:16:18.094Z,6369.00
2023-05-14T08:17:18.143Z,7966.00
2023-05-14T08:18:18.032Z,6392.00
2023-05-14T08:19:18.091Z,6818.00
2023-05-14T08:20:18.005Z,7801.00
2023-05-14T08:21:18.014Z,4712.00
2023-05-14T08:22:17.990Z,27587.00
2023-05-14T08:23:17.979Z,7178.00
2023-05-14T08:24:17.955Z,12050.00
2023-05-14T08:25:18.273Z,10976.00
2023-05-14T08:26:18.498Z,8930.00
2023-05-14T08:27:17.931Z,7203.00
2023-05-14T08:28:17.920Z,14742.00
2023-05-14T08:29:17.925Z,15213.00
2023-05-14T08:30:18.794Z,8419.00
2023-05-14T08:31:17.913Z,10080.00
2023-05-14T08:32:23.511Z,9109.00
2023-05-14T08:33:17.871Z,4050.00
2023-05-14T08:34:17.854Z,16140.00
2023-05-14T08:35:17.870Z,6897.00
2023-05-14T08:36:17.830Z,30636.00
2023-05-14T08:37:17.859Z,5275.00
2023-05-14T08:38:17.820Z,27308.00
2023-05-14T08:39:17.822Z,11123.00
2023-05-14T08:40:18.002Z,7648.00
2023-05-14T08:41:17.785Z,4213.00
2023-05-14T08:42:17.772Z,17076.00
2023-05-14T08:43:17.768Z,20245.00
2023-05-14T08:44:17.766Z,6742.00
2023-05-14T08:45:17.742Z,12752.00
2023-05-14T08:46:17.729Z,7085.00
2023-05-14T08:47:17.729Z,9157.00
2023-05-14T08:48:17.772Z,6227.00
2023-05-14T08:49:17.723Z,3785.00
2023-05-14T08:50:17.678Z,16527.00
2023-05-14T08:51:17.677Z,7492.00
2023-05-14T08:52:17.659Z,11981.00
2023-05-14T08:53:17.668Z,3357.00
2023-05-14T08:54:17.890Z,9698.00
2023-05-14T08:55:17.635Z,9195.00
2023-05-14T08:56:17.613Z,8953.00
2023-05-14T08:57:17.605Z,11241.00
2023-05-14T08:58:17.969Z,12480.00
2023-05-14T08:59:17.596Z,10869.00
2023-05-14T09:00:17.568Z,14930.00
2023-05-14T09:01:17.580Z,3699.00
2023-05-14T09:02:17.578Z,7944.00
2023-05-14T09:03:17.565Z,9152.00
2023-05-14T09:04:17.596Z,11643.00
2023-05-14T09:05:17.525Z,15001.00
2023-05-14T09:06:17.515Z,11447.00
2023-05-14T09:07:17.520Z,9880.00
2023-05-14T09:08:17.499Z,8203.00
2023-05-14T09:09:17.494Z,11686.00
2023-05-14T09:10:17.459Z,15919.00
2023-05-14T09:11:17.465Z,12821.00
2023-05-14T09:12:17.470Z,8492.00
2023-05-14T09:13:17.437Z,12207.00
2023-05-14T09:14:17.430Z,12660.00
2023-05-14T09:15:17.424Z,7857.00
2023-05-14T09:16:17.411Z,8128.00
2023-05-14T09:17:17.437Z,10090.00
2023-05-14T09:18:17.389Z,10713.00
2023-05-14T09:19:17.557Z,11611.00
2023-05-14T09:20:17.497Z,13235.00
2023-05-14T09:21:17.375Z,11415.00
2023-05-14T09:22:17.364Z,18146.00
2023-05-14T09:23:17.352Z,6122.00
2023-05-14T09:24:17.338Z,7186.00
2023-05-14T09:25:17.424Z,6007.00
2023-05-14T09:26:17.320Z,11581.00
2023-05-14T09:27:17.294Z,4847.00
2023-05-14T09:28:17.286Z,4179.00
2023-05-14T09:29:17.266Z,5474.00
2023-05-14T09:30:17.247Z,3193.00
2023-05-14T09:31:17.591Z,10948.00
2023-05-14T09:32:17.235Z,4740.00
2023-05-14T09:33:17.224Z,3926.00
2023-05-14T09:34:17.208Z,6035.00
2023-05-14T09:35:17.979Z,4915.00
2023-05-14T09:36:17.518Z,4894.00
2023-05-14T09:37:17.185Z,4663.00
2023-05-14T09:38:17.167Z,4569.00
2023-05-14T09:39:17.189Z,4360.00
2023-05-14T09:40:17.442Z,4073.00
2023-05-14T09:41:17.156Z,4124.00
2023-05-14T09:42:17.126Z,4083.00
2023-05-14T09:43:17.124Z,3717.00
2023-05-14T09:44:17.109Z,3836.00
2023-05-14T09:45:17.157Z,3965.00
2023-05-14T09:46:17.087Z,4061.00
2023-05-14T09:47:17.131Z,4394.00
2023-05-14T09:48:17.111Z,4487.00
2023-05-14T09:49:17.080Z,4413.00
2023-05-14T09:50:17.085Z,4646.00
2023-05-14T09:51:17.058Z,4819.00
2023-05-14T09:52:17.035Z,4716.00
2023-05-14T09:53:17.025Z,4399.00
2023-05-14T09:54:17.459Z,4008.00
2023-05-14T09:55:17.006Z,4046.00
2023-05-14T09:56:17.007Z,4217.00
2023-05-14T09:57:16.977Z,6166.00
2023-05-14T09:58:16.966Z,5508.00
2023-05-14T09:59:17.304Z,5995.00
2023-05-14T10:00:16.940Z,4011.00
2023-05-14T10:01:16.983Z,2337.00
2023-05-14T10:02:16.914Z,9916.00
2023-05-14T10:03:19.727Z,1857.00
2023-05-14T10:04:17.077Z,6940.00
2023-05-14T10:05:16.896Z,2022.00
2023-05-14T10:06:16.877Z,9072.00
2023-05-14T10:07:16.868Z,3490.00
2023-05-14T10:08:16.863Z,2315.00
2023-05-14T10:09:17.194Z,3975.00
2023-05-14T10:10:16.863Z,4003.00
2023-05-14T10:11:16.823Z,4276.00
2023-05-14T10:12:16.804Z,4159.00
2023-05-14T10:13:17.168Z,3846.00
2023-05-14T10:14:16.792Z,3678.00
2023-05-14T10:15:16.770Z,3475.00
2023-05-14T10:16:16.761Z,3254.00
2023-05-14T10:17:16.854Z,3070.00
2023-05-14T10:18:16.824Z,3014.00
2023-05-14T10:19:16.794Z,2966.00
2023-05-14T10:20:16.765Z,2936.00
2023-05-14T10:21:16.714Z,5337.00
2023-05-14T10:22:16.709Z,7631.00
2023-05-14T10:23:16.726Z,2964.00
2023-05-14T10:24:16.682Z,2961.00
2023-05-14T10:25:16.693Z,2864.00
2023-05-14T10:26:16.659Z,2896.00
2023-05-14T10:27:17.177Z,3133.00
2023-05-14T10:28:16.624Z,2955.00
2023-05-14T10:29:16.626Z,2980.00
2023-05-14T10:30:16.608Z,1833.00
2023-05-14T10:31:16.753Z,5924.00
2023-05-14T10:32:16.612Z,4103.00
2023-05-14T10:33:16.700Z,2218.00
2023-05-14T10:34:16.567Z,3232.00
2023-05-14T10:35:16.565Z,3351.00
2023-05-14T10:36:16.941Z,3638.00
2023-05-14T10:37:16.537Z,4034.00
2023-05-14T10:38:16.521Z,3889.00
2023-05-14T10:39:16.524Z,6925.00
2023-05-14T10:40:16.504Z,3143.00
2023-05-14T10:41:16.514Z,3438.00
2023-05-14T10:42:16.479Z,3673.00
2023-05-14T10:43:16.476Z,3776.00
2023-05-14T10:44:16.460Z,3768.00
2023-05-14T10:45:16.475Z,11392.00
2023-05-14T10:46:16.856Z,4886.00
2023-05-14T10:47:16.448Z,4511.00
2023-05-14T10:48:16.485Z,3899.00
2023-05-14T10:49:20.987Z,3732.00
2023-05-14T10:50:16.704Z,3626.00
2023-05-14T10:51:16.448Z,3633.00
2023-05-14T10:52:16.370Z,3938.00
2023-05-14T10:53:16.361Z,4110.00
2023-05-14T10:54:16.348Z,4394.00
2023-05-14T10:55:16.755Z,4617.00
2023-05-14T10:56:16.334Z,4519.00
2023-05-14T10:57:16.320Z,4044.00
2023-05-14T10:58:16.310Z,2476.00
2023-05-14T10:59:16.313Z,3234.00
2023-05-14T11:00:16.307Z,3505.00
2023-05-14T11:01:16.281Z,5544.00
2023-05-14T11:02:16.428Z,8343.00
2023-05-14T11:03:16.286Z,2451.00
2023-05-14T11:04:16.290Z,8496.00
2023-05-14T11:05:16.339Z,3342.00
2023-05-14T11:06:16.331Z,2247.00
2023-05-14T11:07:16.214Z,7739.00
2023-05-14T11:08:16.202Z,4044.00
2023-05-14T11:09:16.214Z,2421.00
2023-05-14T11:10:16.177Z,5425.00
2023-05-14T11:11:16.169Z,2958.00
2023-05-14T11:12:16.154Z,3513.00
2023-05-14T11:13:16.895Z,11526.00
2023-05-14T11:14:16.151Z,4381.00
2023-05-14T11:15:16.130Z,2073.00
2023-05-14T11:16:23.397Z,2654.00
2023-05-14T11:17:16.126Z,3251.00
2023-05-14T11:18:16.433Z,4456.00
2023-05-14T11:19:16.140Z,5264.00
2023-05-14T11:20:16.078Z,5574.00
2023-05-14T11:21:16.071Z,4003.00
2023-05-14T11:22:16.067Z,3638.00
2023-05-14T11:23:16.796Z,3638.00
2023-05-14T11:24:16.019Z,2029.00
2023-05-14T11:25:16.008Z,2808.00
2023-05-14T11:26:16.064Z,2584.00
2023-05-14T11:27:16.297Z,8212.00
2023-05-14T11:28:16.492Z,3495.00
2023-05-14T11:29:15.970Z,3473.00
2023-05-14T11:30:15.960Z,3526.00
2023-05-14T11:31:15.986Z,3566.00
2023-05-14T11:32:16.856Z,3060.00
2023-05-14T11:33:15.938Z,2506.00
2023-05-14T11:34:15.912Z,6141.00
2023-05-14T11:35:15.901Z,5074.00
2023-05-14T11:36:15.905Z,2764.00
2023-05-14T11:37:16.295Z,7279.00
2023-05-14T11:38:15.868Z,3486.00
2023-05-14T11:39:15.869Z,6458.00
2023-05-14T11:40:15.846Z,3273.00
2023-05-14T11:41:16.747Z,2737.00
2023-05-14T11:42:16.178Z,8268.00
2023-05-14T11:43:15.830Z,2417.00
2023-05-14T11:44:15.803Z,2666.00
2023-05-14T11:45:15.819Z,2821.00
2023-05-14T11:46:16.098Z,3964.00
2023-05-14T11:47:15.786Z,6460.00
2023-05-14T11:48:15.853Z,3704.00
2023-05-14T11:49:15.758Z,3155.00
2023-05-14T11:50:15.819Z,3157.00
2023-05-14T11:51:16.565Z,1999.00
2023-05-14T11:52:15.739Z,6818.00
2023-05-14T11:53:15.709Z,3781.00
2023-05-14T11:54:15.690Z,3611.00
2023-05-14T11:55:16.188Z,3705.00
2023-05-14T11:56:16.010Z,3555.00
2023-05-14T11:57:15.673Z,1679.00
2023-05-14T11:58:15.662Z,2394.00
2023-05-14T11:59:15.646Z,3163.00
2023-05-14T12:00:15.690Z,3145.00
2023-05-14T12:01:15.628Z,3266.00
2023-05-14T12:02:15.648Z,3325.00
2023-05-14T12:03:15.709Z,6093.00
2023-05-14T12:04:15.598Z,6406.00
2023-05-14T12:05:15.970Z,5282.00
2023-05-14T12:06:15.561Z,4077.00
2023-05-14T12:07:15.602Z,3929.00
2023-05-14T12:08:15.553Z,3994.00
2023-05-14T12:09:16.323Z,4156.00
2023-05-14T12:10:16.019Z,4232.00
2023-05-14T12:11:15.517Z,4201.00
2023-05-14T12:12:15.494Z,4242.00
2023-05-14T12:13:15.495Z,4404.00
2023-05-14T12:14:15.840Z,4302.00
2023-05-14T12:15:15.478Z,4236.00
2023-05-14T12:16:15.503Z,4187.00
2023-05-14T12:17:15.439Z,4152.00
2023-05-14T12:18:23.893Z,4075.00
2023-05-14T12:19:15.899Z,3930.00
2023-05-14T12:20:15.453Z,3807.00
2023-05-14T12:21:15.400Z,3793.00
2023-05-14T12:22:15.430Z,3723.00
2023-05-14T12:23:16.082Z,3671.00
2023-05-14T12:24:15.785Z,3693.00
2023-05-14T12:25:15.355Z,3626.00
2023-05-14T12:26:15.347Z,3497.00
2023-05-14T12:27:15.334Z,3373.00